This is the latest recevied weather packets stored in our database for station/object OE-11144. If no packets are shown the sender has not sent any weather packets the latest 10 day(s).
| Time | Temp. | Humidity | Pressure | Rain* | Wind** | Luminosity | Snow |
|---|---|---|---|---|---|---|---|
| 1787774728 | 16.67° C | 87% | 1016.8 hPa | 0 mm | - | - | - |
| 1787774128 | 17.22° C | 86% | 1016.6 hPa | 0 mm | - | - | - |
| 1787773301 | 17.22° C | 87% | 1016.5 hPa | 0 mm | - | - | - |
| 1787772928 | 17.78° C | 81% | 1016.3 hPa | 0 mm | - | - | - |
| 1787772328 | 19.44° C | 75% | 1015.8 hPa | 0 mm | - | - | - |
| 1787771501 | 19.44° C | 76% | 1015.8 hPa | 0 mm | - | - | - |
| 1787771128 | 20° C | 74% | 1015.5 hPa | 0 mm | - | - | - |
| 1787770528 | 20.56° C | 72% | 1015.2 hPa | 0 mm | - | - | - |
| 1787769701 | 20.56° C | 71% | 1015.1 hPa | 0 mm | - | - | - |
| 1787769328 | 20.56° C | 70% | 1015 hPa | 0 mm | - | - | - |
| 1787768728 | 21.11° C | 72% | 1014.9 hPa | 0 mm | - | - | - |
| 1787767902 | 21.11° C | 72% | 1014.7 hPa | 0 mm | - | - | - |
| 1787767528 | 21.67° C | 70% | 1014.4 hPa | 0 mm | - | - | - |
| 1787766928 | 22.22° C | 68% | 1014.2 hPa | 0 mm | - | - | - |
| 1787766101 | 22.22° C | 66% | 1014.1 hPa | 0 mm | - | - | - |
| 1787765728 | 22.78° C | 64% | 1013.9 hPa | 0 mm | - | - | - |
| 1787765127 | 23.33° C | 61% | 1013.7 hPa | 0 mm | - | - | - |
| 1787764301 | 23.89° C | 61% | 1013.5 hPa | 0 mm | - | - | - |
| 1787763928 | 23.33° C | 61% | 1013.6 hPa | 0 mm | - | - | - |
| 1787763327 | 23.33° C | 61% | 1013.8 hPa | 0 mm | - | - | - |
| 1787762501 | 23.33° C | 58% | 1013.6 hPa | 0 mm | - | - | - |
| 1787762128 | 23.89° C | 56% | 1013.6 hPa | 0 mm | - | - | - |
| 1787761528 | 23.89° C | 58% | 1013.7 hPa | 0 mm | - | - | - |
| 1787760701 | 23.89° C | 61% | 1013.6 hPa | 0 mm | - | - | - |
| 1787760328 | 24.44° C | 60% | 1013.6 hPa | 0 mm | - | - | - |
* Rain latest hour (hover to see other rain measurements)
** Current wind speed in m/s (hover to see current wind gust speed)